Time;durP1;ratioP1;P1;durP2;ratioP2;P2;SDS_P1;SDS_P2;PMS_P1;PMS_P2;Temp;Humidity;BMP_temperature;BMP_pressure;BME280_temperature;BME280_humidity;BME280_pressure;Samples;Min_cycle;Max_cycle;Signal;HPM_P1;HPM_P2
2023/12/04 00:01:47;;;;;;;20.97;12.17;;;;;;;;;;6277252;22;20213;-55
2023/12/04 00:04:13;;;;;;;21.37;10.90;;;;;;;;;;6276128;22;20172;-53
2023/12/04 00:06:46;;;;;;;19.47;10.73;;;;;;;;;;6275531;22;20545;-52
2023/12/04 00:09:13;;;;;;;21.37;11.57;;;;;;;;;;6275703;22;20140;-52
2023/12/04 00:11:39;;;;;;;16.23;11.30;;;;;;;;;;6275099;22;20152;-50
2023/12/04 00:14:06;;;;;;;21.07;10.67;;;;;;;;;;6276147;22;20144;-50
2023/12/04 00:16:35;;;;;;;21.80;11.40;;;;;;;;;;6274799;22;20134;-53
2023/12/04 00:19:02;;;;;;;21.87;11.43;;;;;;;;;;6276234;22;20132;-53
2023/12/04 00:21:28;;;;;;;20.20;11.80;;;;;;;;;;6276279;22;20125;-54
2023/12/04 00:23:54;;;;;;;18.13;10.77;;;;;;;;;;6276075;22;20202;-52
2023/12/04 00:26:20;;;;;;;19.90;11.20;;;;;;;;;;6276716;22;20148;-53
2023/12/04 00:28:47;;;;;;;20.93;11.37;;;;;;;;;;6276486;22;20237;-55
2023/12/04 00:31:19;;;;;;;20.00;11.73;;;;;;;;;;6277203;22;20121;-53
2023/12/04 00:33:45;;;;;;;20.80;11.17;;;;;;;;;;6281065;22;20256;-49
2023/12/04 00:36:11;;;;;;;22.97;11.83;;;;;;;;;;6280708;22;20143;-50
2023/12/04 00:38:37;;;;;;;20.07;10.87;;;;;;;;;;6281120;22;20518;-53
2023/12/04 00:41:04;;;;;;;19.97;11.70;;;;;;;;;;6281040;22;20296;-53
2023/12/04 00:43:30;;;;;;;22.87;12.07;;;;;;;;;;6308345;22;20249;-51
2023/12/04 00:45:56;;;;;;;19.23;10.33;;;;;;;;;;6282629;22;20135;-48
2023/12/04 00:48:22;;;;;;;22.30;10.83;;;;;;;;;;6281769;22;20135;-50
2023/12/04 00:50:48;;;;;;;20.13;12.07;;;;;;;;;;6282984;22;20139;-48
2023/12/04 00:53:14;;;;;;;19.67;11.80;;;;;;;;;;6282632;22;20151;-53
2023/12/04 00:55:41;;;;;;;20.93;10.90;;;;;;;;;;6282197;22;20151;-53
2023/12/04 00:58:07;;;;;;;18.73;10.83;;;;;;;;;;6308143;22;20529;-53
2023/12/04 01:00:33;;;;;;;18.47;11.47;;;;;;;;;;6280788;22;20151;-50
2023/12/04 01:02:59;;;;;;;20.47;11.77;;;;;;;;;;6281287;22;20167;-53
2023/12/04 01:05:25;;;;;;;18.63;11.53;;;;;;;;;;6281608;22;20132;-51
2023/12/04 01:07:53;;;;;;;19.90;11.17;;;;;;;;;;6308371;22;20124;-53
2023/12/04 01:10:19;;;;;;;20.37;11.60;;;;;;;;;;6281781;22;20214;-51
2023/12/04 01:12:45;;;;;;;18.40;10.93;;;;;;;;;;6308262;22;20128;-51
2023/12/04 01:15:12;;;;;;;18.13;10.63;;;;;;;;;;6281880;22;20199;-54
2023/12/04 01:17:38;;;;;;;19.47;10.53;;;;;;;;;;6282946;22;20144;-54
2023/12/04 01:20:09;;;;;;;19.67;11.50;;;;;;;;;;6282301;22;20484;-50
2023/12/04 01:22:35;;;;;;;18.30;10.43;;;;;;;;;;6282307;22;20163;-54
2023/12/04 01:25:02;;;;;;;21.97;10.20;;;;;;;;;;6282093;22;20218;-52
2023/12/04 01:27:29;;;;;;;21.07;11.33;;;;;;;;;;6281509;22;20453;-48
2023/12/04 01:29:55;;;;;;;16.33;9.70;;;;;;;;;;6281458;22;20515;-52
2023/12/04 01:32:20;;;;;;;21.50;11.77;;;;;;;;;;6281996;22;20147;-52
2023/12/04 01:34:47;;;;;;;18.13;11.10;;;;;;;;;;6276605;22;20191;-50
2023/12/04 01:37:14;;;;;;;24.10;12.07;;;;;;;;;;6275913;22;20588;-50
2023/12/04 01:39:41;;;;;;;21.07;10.27;;;;;;;;;;6277296;22;20128;-53
2023/12/04 01:42:07;;;;;;;20.80;11.27;;;;;;;;;;6276408;22;20159;-55
2023/12/04 01:44:33;;;;;;;18.20;11.23;;;;;;;;;;6276743;22;20129;-53
2023/12/04 01:46:59;;;;;;;20.03;10.73;;;;;;;;;;6276488;22;20151;-53
2023/12/04 01:49:26;;;;;;;17.97;11.60;;;;;;;;;;6276469;22;20230;-55
2023/12/04 01:51:52;;;;;;;17.03;10.00;;;;;;;;;;6275930;22;20152;-53
2023/12/04 01:54:18;;;;;;;23.93;12.00;;;;;;;;;;6274794;22;20158;-55
2023/12/04 01:56:44;;;;;;;19.20;10.30;;;;;;;;;;6276825;22;20502;-52
2023/12/04 01:59:10;;;;;;;18.47;10.53;;;;;;;;;;6275503;22;20132;-55
2023/12/04 02:01:36;;;;;;;19.73;10.97;;;;;;;;;;6274404;22;20181;-51
2023/12/04 02:04:04;;;;;;;19.60;11.13;;;;;;;;;;6275139;22;20229;-54
2023/12/04 02:06:30;;;;;;;19.67;11.57;;;;;;;;;;6275551;22;20163;-53
2023/12/04 02:08:57;;;;;;;21.03;11.40;;;;;;;;;;6275251;22;20510;-53
2023/12/04 02:11:23;;;;;;;20.33;11.47;;;;;;;;;;6276488;22;20151;-50
2023/12/04 02:13:49;;;;;;;17.07;9.57;;;;;;;;;;6275917;22;20144;-53
2023/12/04 02:16:18;;;;;;;18.70;10.23;;;;;;;;;;6277119;22;20488;-50
2023/12/04 02:18:44;;;;;;;17.07;10.37;;;;;;;;;;6279356;22;20151;-52
2023/12/04 02:21:17;;;;;;;21.93;11.67;;;;;;;;;;6279651;22;20182;-52
2023/12/04 02:23:43;;;;;;;19.17;10.77;;;;;;;;;;6279445;22;20178;-52
2023/12/04 02:26:11;;;;;;;17.37;11.20;;;;;;;;;;6278931;22;20148;-52
2023/12/04 02:28:37;;;;;;;25.93;12.27;;;;;;;;;;6279326;22;20155;-53
2023/12/04 02:31:05;;;;;;;17.47;10.20;;;;;;;;;;6279339;22;20221;-53
2023/12/04 02:33:32;;;;;;;18.40;10.20;;;;;;;;;;6280014;22;20155;-53
2023/12/04 02:35:59;;;;;;;17.60;10.33;;;;;;;;;;6284178;22;20182;-53
2023/12/04 02:38:30;;;;;;;18.87;10.40;;;;;;;;;;6284235;22;20502;-53
2023/12/04 02:40:56;;;;;;;23.47;12.13;;;;;;;;;;6284047;22;20551;-53
2023/12/04 02:43:23;;;;;;;21.53;10.83;;;;;;;;;;6310121;22;20163;-51
2023/12/04 02:45:49;;;;;;;17.20;10.03;;;;;;;;;;6283352;22;20142;-54
2023/12/04 02:48:15;;;;;;;18.10;10.03;;;;;;;;;;6283831;22;20155;-55
2023/12/04 02:50:41;;;;;;;18.10;10.10;;;;;;;;;;6283050;22;20517;-55
2023/12/04 02:53:07;;;;;;;16.07;9.47;;;;;;;;;;6283600;22;20160;-52
2023/12/04 02:55:36;;;;;;;14.73;9.23;;;;;;;;;;6310072;22;20128;-54
2023/12/04 02:58:02;;;;;;;18.83;10.50;;;;;;;;;;6283572;22;20179;-54
2023/12/04 03:00:29;;;;;;;18.97;10.77;;;;;;;;;;6281958;22;20155;-51
2023/12/04 03:02:55;;;;;;;21.07;9.93;;;;;;;;;;6282017;22;20164;-53
2023/12/04 03:05:21;;;;;;;18.27;10.13;;;;;;;;;;6283554;22;20164;-54
2023/12/04 03:07:47;;;;;;;16.90;10.13;;;;;;;;;;6282171;22;20193;-55
2023/12/04 03:10:13;;;;;;;17.40;10.20;;;;;;;;;;6282135;22;20533;-54
2023/12/04 03:12:40;;;;;;;17.17;10.50;;;;;;;;;;6282263;22;20435;-52
2023/12/04 03:15:06;;;;;;;17.00;10.33;;;;;;;;;;6309153;22;20136;-54
2023/12/04 03:17:32;;;;;;;17.67;8.90;;;;;;;;;;6282739;22;20135;-56
2023/12/04 03:19:58;;;;;;;14.87;9.37;;;;;;;;;;6282787;22;20178;-55
2023/12/04 03:22:24;;;;;;;14.33;9.00;;;;;;;;;;6308696;22;20160;-52
2023/12/04 03:24:51;;;;;;;16.17;9.63;;;;;;;;;;6283192;22;20139;-55
2023/12/04 03:27:17;;;;;;;15.57;9.07;;;;;;;;;;6281852;22;20212;-54
2023/12/04 03:29:42;;;;;;;13.00;8.20;;;;;;;;;;6283040;22;20409;-54
2023/12/04 03:32:09;;;;;;;12.40;8.67;;;;;;;;;;6282668;22;20132;-56
2023/12/04 03:34:35;;;;;;;14.60;8.80;;;;;;;;;;6283594;22;20690;-55
2023/12/04 03:37:01;;;;;;;15.73;9.53;;;;;;;;;;6282604;22;20692;-53
2023/12/04 03:39:27;;;;;;;17.53;9.87;;;;;;;;;;6283024;22;20140;-52
2023/12/04 03:41:52;;;;;;;17.90;9.90;;;;;;;;;;6282749;22;20147;-49
2023/12/04 03:44:19;;;;;;;18.33;10.30;;;;;;;;;;6308990;22;20164;-52
2023/12/04 03:46:45;;;;;;;20.50;9.77;;;;;;;;;;6282347;22;20139;-55
2023/12/04 03:49:11;;;;;;;16.40;8.87;;;;;;;;;;6282259;22;20144;-54
2023/12/04 03:51:37;;;;;;;15.67;9.40;;;;;;;;;;6309187;22;20124;-48
2023/12/04 03:54:03;;;;;;;14.63;8.87;;;;;;;;;;6278107;22;20355;-51
2023/12/04 03:56:29;;;;;;;14.60;9.10;;;;;;;;;;6302426;22;20154;-50
2023/12/04 03:58:55;;;;;;;14.50;8.70;;;;;;;;;;6277634;22;20151;-51
2023/12/04 04:01:21;;;;;;;15.33;9.70;;;;;;;;;;6304941;22;20139;-53
2023/12/04 04:03:47;;;;;;;14.50;7.50;;;;;;;;;;6305595;22;20207;-52
2023/12/04 04:06:14;;;;;;;14.57;9.13;;;;;;;;;;6278513;22;20140;-50
2023/12/04 04:08:40;;;;;;;15.40;9.00;;;;;;;;;;6277361;22;20230;-51
2023/12/04 04:11:06;;;;;;;13.27;7.80;;;;;;;;;;6275985;22;20151;-50
2023/12/04 04:13:32;;;;;;;15.07;9.60;;;;;;;;;;6278374;22;20511;-51
2023/12/04 04:15:58;;;;;;;15.33;8.50;;;;;;;;;;6280253;22;20140;-52
2023/12/04 04:18:24;;;;;;;14.77;8.70;;;;;;;;;;6281451;22;20151;-49
2023/12/04 04:20:50;;;;;;;14.60;9.27;;;;;;;;;;6307402;22;20151;-50
2023/12/04 04:23:35;;;;;;;12.13;7.80;;;;;;;;;;6307095;22;20589;-52
2023/12/04 04:26:02;;;;;;;13.87;8.10;;;;;;;;;;6281047;22;20827;-53
2023/12/04 04:28:28;;;;;;;12.90;8.27;;;;;;;;;;6308040;22;20146;-49
2023/12/04 04:30:54;;;;;;;13.70;8.30;;;;;;;;;;6280820;22;20581;-50
2023/12/04 04:33:20;;;;;;;17.13;9.07;;;;;;;;;;6280477;22;20214;-54
2023/12/04 04:35:46;;;;;;;14.63;8.43;;;;;;;;;;6277509;22;20200;-49
2023/12/04 04:38:12;;;;;;;14.33;8.67;;;;;;;;;;6277371;22;20129;-50
2023/12/04 04:40:41;;;;;;;18.10;9.37;;;;;;;;;;6277598;22;20611;-53
2023/12/04 04:43:08;;;;;;;15.50;9.07;;;;;;;;;;6276422;22;20246;-49
2023/12/04 04:45:34;;;;;;;13.80;8.23;;;;;;;;;;6277226;22;20133;-54
2023/12/04 04:48:00;;;;;;;15.50;8.90;;;;;;;;;;6277057;22;20185;-51
2023/12/04 04:50:26;;;;;;;13.77;8.37;;;;;;;;;;6276428;22;20132;-52
2023/12/04 04:52:52;;;;;;;10.87;7.67;;;;;;;;;;6277608;22;20129;-50
2023/12/04 04:55:20;;;;;;;12.07;7.70;;;;;;;;;;6277357;22;20142;-54
2023/12/04 04:57:47;;;;;;;16.13;9.50;;;;;;;;;;6276830;22;20219;-51
2023/12/04 05:00:13;;;;;;;12.83;8.10;;;;;;;;;;6276505;22;20529;-53
2023/12/04 05:02:39;;;;;;;12.60;8.00;;;;;;;;;;6277106;22;20160;-53
2023/12/04 05:05:06;;;;;;;14.90;8.13;;;;;;;;;;6276003;22;20188;-53
2023/12/04 05:07:32;;;;;;;14.83;8.20;;;;;;;;;;6276828;22;20124;-49
2023/12/04 05:09:59;;;;;;;12.10;7.50;;;;;;;;;;6274201;22;20128;-51
2023/12/04 05:12:25;;;;;;;12.90;7.93;;;;;;;;;;6269775;22;20179;-48
2023/12/04 05:14:51;;;;;;;12.23;7.40;;;;;;;;;;6270955;22;20461;-54
2023/12/04 05:17:18;;;;;;;14.07;8.47;;;;;;;;;;6274371;22;20290;-52
2023/12/04 05:19:44;;;;;;;13.70;8.63;;;;;;;;;;6276032;22;20226;-51
2023/12/04 05:22:10;;;;;;;12.77;7.90;;;;;;;;;;6276128;22;20159;-52
2023/12/04 05:24:36;;;;;;;14.23;8.60;;;;;;;;;;6276502;22;20191;-54
2023/12/04 05:27:02;;;;;;;14.23;7.80;;;;;;;;;;6276085;22;20281;-52
2023/12/04 05:29:29;;;;;;;12.60;7.43;;;;;;;;;;6276441;22;20141;-48
2023/12/04 05:31:57;;;;;;;14.23;8.47;;;;;;;;;;6275323;22;20150;-48
2023/12/04 05:34:24;;;;;;;13.03;7.97;;;;;;;;;;6275509;22;20275;-50
2023/12/04 05:36:50;;;;;;;12.80;8.23;;;;;;;;;;6277090;22;20205;-54
2023/12/04 05:39:16;;;;;;;13.10;8.17;;;;;;;;;;6276669;22;20421;-51
2023/12/04 05:41:43;;;;;;;17.07;9.13;;;;;;;;;;6275892;22;20162;-53
2023/12/04 05:44:09;;;;;;;12.73;8.07;;;;;;;;;;6275825;22;20176;-55
2023/12/04 05:46:35;;;;;;;15.70;8.70;;;;;;;;;;6277325;22;20135;-53
2023/12/04 05:49:01;;;;;;;13.97;9.10;;;;;;;;;;6277334;22;20479;-53
2023/12/04 05:51:27;;;;;;;16.07;8.87;;;;;;;;;;6276150;22;20695;-56
2023/12/04 05:53:53;;;;;;;13.53;8.93;;;;;;;;;;6271029;22;20298;-53
2023/12/04 05:56:19;;;;;;;15.93;9.13;;;;;;;;;;6271243;22;20227;-53
2023/12/04 05:58:45;;;;;;;13.33;8.77;;;;;;;;;;6270862;22;20604;-51
2023/12/04 06:01:11;;;;;;;16.90;10.00;;;;;;;;;;6269755;22;20186;-48
2023/12/04 06:03:37;;;;;;;15.37;9.23;;;;;;;;;;6268494;22;20566;-52
2023/12/04 06:06:04;;;;;;;17.10;9.10;;;;;;;;;;6270125;22;20125;-50
2023/12/04 06:08:30;;;;;;;15.23;8.27;;;;;;;;;;6268218;22;20144;-50
2023/12/04 06:10:56;;;;;;;21.90;9.80;;;;;;;;;;6268163;22;20153;-48
2023/12/04 06:13:22;;;;;;;16.53;9.40;;;;;;;;;;6267307;22;20348;-48
2023/12/04 06:15:48;;;;;;;16.17;8.93;;;;;;;;;;6269054;22;20436;-49
2023/12/04 06:18:14;;;;;;;13.97;8.97;;;;;;;;;;6273869;22;20128;-53
2023/12/04 06:20:41;;;;;;;15.90;8.57;;;;;;;;;;6273199;22;20144;-50
2023/12/04 06:23:07;;;;;;;16.90;9.43;;;;;;;;;;6272090;22;20172;-52
2023/12/04 06:25:33;;;;;;;14.50;8.60;;;;;;;;;;6272841;22;20148;-49
2023/12/04 06:27:59;;;;;;;15.10;8.13;;;;;;;;;;6273579;22;20144;-49
2023/12/04 06:30:27;;;;;;;13.87;8.47;;;;;;;;;;6273712;22;20174;-52
2023/12/04 06:32:54;;;;;;;15.10;8.57;;;;;;;;;;6273454;22;20144;-50
2023/12/04 06:35:21;;;;;;;14.50;8.43;;;;;;;;;;6273685;22;20191;-54
2023/12/04 06:37:49;;;;;;;16.43;8.93;;;;;;;;;;6275293;22;20182;-50
2023/12/04 06:40:17;;;;;;;15.77;9.70;;;;;;;;;;6275428;22;20148;-51
2023/12/04 06:42:43;;;;;;;15.73;9.43;;;;;;;;;;6273530;22;20613;-52
2023/12/04 06:45:10;;;;;;;16.00;9.03;;;;;;;;;;6273485;22;20144;-53
2023/12/04 06:47:36;;;;;;;20.07;10.40;;;;;;;;;;6272711;22;20125;-49
2023/12/04 06:50:03;;;;;;;16.43;9.20;;;;;;;;;;6273286;22;20198;-51
2023/12/04 06:52:29;;;;;;;14.70;9.13;;;;;;;;;;6272459;22;20243;-52
2023/12/04 06:54:56;;;;;;;15.73;9.13;;;;;;;;;;6265586;22;20342;-50
2023/12/04 06:57:22;;;;;;;14.97;8.80;;;;;;;;;;6266136;22;20159;-48
2023/12/04 06:59:49;;;;;;;14.03;9.10;;;;;;;;;;6264724;22;20171;-51
2023/12/04 07:02:15;;;;;;;17.40;9.87;;;;;;;;;;6263161;22;20163;-50
2023/12/04 07:04:41;;;;;;;16.13;9.63;;;;;;;;;;6262797;22;20140;-53
2023/12/04 07:07:07;;;;;;;17.93;9.40;;;;;;;;;;6264774;22;20593;-51
2023/12/04 07:09:34;;;;;;;16.30;9.60;;;;;;;;;;6261369;22;20260;-50
2023/12/04 07:12:00;;;;;;;15.60;9.33;;;;;;;;;;6262587;22;20159;-49
2023/12/04 07:14:26;;;;;;;18.00;10.53;;;;;;;;;;6264605;22;20522;-49
2023/12/04 07:16:52;;;;;;;19.10;11.67;;;;;;;;;;6269180;22;20164;-50
2023/12/04 07:19:18;;;;;;;18.70;9.23;;;;;;;;;;6269978;22;20141;-55
2023/12/04 07:21:44;;;;;;;17.80;9.13;;;;;;;;;;6271933;22;20128;-54
2023/12/04 07:24:10;;;;;;;15.70;9.33;;;;;;;;;;6271680;22;20157;-52
2023/12/04 07:26:36;;;;;;;20.40;10.67;;;;;;;;;;6270666;22;20155;-50
2023/12/04 07:29:03;;;;;;;18.10;11.50;;;;;;;;;;6269770;22;20287;-51
2023/12/04 07:31:29;;;;;;;16.57;10.13;;;;;;;;;;6272371;22;20194;-50
2023/12/04 07:33:55;;;;;;;17.17;11.23;;;;;;;;;;6272645;22;20199;-52
2023/12/04 07:36:21;;;;;;;18.40;10.40;;;;;;;;;;6273026;22;20151;-49
2023/12/04 07:38:49;;;;;;;16.83;10.53;;;;;;;;;;6273257;22;20730;-53
2023/12/04 07:41:15;;;;;;;18.80;11.67;;;;;;;;;;6273269;22;20159;-52
2023/12/04 07:43:41;;;;;;;17.27;10.63;;;;;;;;;;6273725;22;20253;-51
2023/12/04 07:46:10;;;;;;;18.43;11.30;;;;;;;;;;6272001;22;20459;-52
2023/12/04 07:48:36;;;;;;;17.40;9.83;;;;;;;;;;6270459;22;20432;-55
2023/12/04 07:51:02;;;;;;;17.37;10.13;;;;;;;;;;6271737;22;20137;-52
2023/12/04 07:53:28;;;;;;;18.00;10.67;;;;;;;;;;6273378;22;20554;-53
2023/12/04 07:55:54;;;;;;;21.30;11.20;;;;;;;;;;6273256;22;20152;-50
2023/12/04 07:58:23;;;;;;;14.87;10.23;;;;;;;;;;6271045;22;20460;-50
2023/12/04 08:00:50;;;;;;;21.30;11.87;;;;;;;;;;6271678;22;20144;-53
2023/12/04 08:03:16;;;;;;;16.90;9.87;;;;;;;;;;6272406;22;20164;-53
2023/12/04 08:05:43;;;;;;;17.67;10.50;;;;;;;;;;6273489;22;20159;-52
2023/12/04 08:08:10;;;;;;;17.40;10.60;;;;;;;;;;6271978;22;20137;-55
2023/12/04 08:10:37;;;;;;;17.77;9.47;;;;;;;;;;6273716;22;20218;-52
2023/12/04 08:13:03;;;;;;;18.37;10.43;;;;;;;;;;6275258;22;20152;-51
2023/12/04 08:15:29;;;;;;;21.50;9.67;;;;;;;;;;6250084;22;20223;-49
2023/12/04 08:17:57;;;;;;;19.33;10.13;;;;;;;;;;6274727;22;20151;-51
2023/12/04 08:20:24;;;;;;;20.90;10.40;;;;;;;;;;6275079;22;20300;-48
2023/12/04 08:22:50;;;;;;;18.00;9.90;;;;;;;;;;6273920;22;20167;-53
2023/12/04 08:25:16;;;;;;;15.13;9.67;;;;;;;;;;6273047;22;20151;-54
2023/12/04 08:27:44;;;;;;;13.83;8.70;;;;;;;;;;6271096;22;20152;-51
2023/12/04 08:30:10;;;;;;;15.17;8.93;;;;;;;;;;6272124;22;20140;-54
2023/12/04 08:32:36;;;;;;;14.97;10.67;;;;;;;;;;6271338;22;20141;-50
2023/12/04 08:35:03;;;;;;;15.87;9.97;;;;;;;;;;6272187;22;20196;-56
2023/12/04 08:37:30;;;;;;;16.27;9.27;;;;;;;;;;6272611;22;20159;-54
2023/12/04 08:39:57;;;;;;;15.03;9.77;;;;;;;;;;6274410;22;20221;-52
2023/12/04 08:42:26;;;;;;;16.77;10.27;;;;;;;;;;6274979;22;20214;-54
2023/12/04 08:44:55;;;;;;;17.57;10.37;;;;;;;;;;6274970;22;20144;-53
2023/12/04 08:47:29;;;;;;;17.53;10.53;;;;;;;;;;6275274;22;20533;-52
2023/12/04 08:49:55;;;;;;;14.63;9.47;;;;;;;;;;6275254;22;20684;-51
2023/12/04 08:52:24;;;;;;;21.20;10.07;;;;;;;;;;6246600;22;20152;-52
2023/12/04 08:54:51;;;;;;;17.37;10.07;;;;;;;;;;6246818;22;20148;-53
2023/12/04 08:57:18;;;;;;;19.10;10.27;;;;;;;;;;6270809;22;20144;-55
2023/12/04 08:59:44;;;;;;;18.73;11.27;;;;;;;;;;6270626;22;20148;-55
2023/12/04 09:02:10;;;;;;;16.33;10.13;;;;;;;;;;6270720;22;20201;-50
2023/12/04 09:04:37;;;;;;;16.60;9.97;;;;;;;;;;6272102;22;20176;-51
2023/12/04 09:07:04;;;;;;;16.87;10.53;;;;;;;;;;6272007;22;20159;-51
2023/12/04 09:09:32;;;;;;;19.97;10.83;;;;;;;;;;6272538;22;20140;-53
2023/12/04 09:11:58;;;;;;;17.90;11.30;;;;;;;;;;6272016;22;20191;-52
2023/12/04 09:14:27;;;;;;;18.17;10.83;;;;;;;;;;6271357;22;20152;-54
2023/12/04 09:16:54;;;;;;;16.90;10.57;;;;;;;;;;6271599;22;20140;-53
2023/12/04 09:19:21;;;;;;;16.47;10.70;;;;;;;;;;6272024;22;20133;-54
2023/12/04 09:21:47;;;;;;;22.03;11.87;;;;;;;;;;6271778;22;20617;-54
2023/12/04 09:24:14;;;;;;;15.83;10.13;;;;;;;;;;6269978;22;20175;-54
2023/12/04 09:26:40;;;;;;;21.43;11.80;;;;;;;;;;6270730;22;20136;-51
2023/12/04 09:29:08;;;;;;;18.23;12.47;;;;;;;;;;6271644;22;20144;-55
2023/12/04 09:31:35;;;;;;;19.43;11.10;;;;;;;;;;6272978;22;20136;-53
2023/12/04 09:34:03;;;;;;;18.80;11.40;;;;;;;;;;6270976;22;20188;-50
2023/12/04 09:36:30;;;;;;;17.53;10.90;;;;;;;;;;6274441;22;20225;-53
2023/12/04 09:38:57;;;;;;;19.13;12.63;;;;;;;;;;6271569;22;20145;-52
2023/12/04 09:41:26;;;;;;;19.50;11.30;;;;;;;;;;6271301;22;20156;-54
2023/12/04 09:43:52;;;;;;;15.80;9.50;;;;;;;;;;6273132;22;20239;-52
2023/12/04 09:46:22;;;;;;;20.00;10.93;;;;;;;;;;6273228;22;20171;-54
2023/12/04 09:48:50;;;;;;;18.47;11.43;;;;;;;;;;6268349;22;20605;-54
2023/12/04 09:51:17;;;;;;;22.93;10.27;;;;;;;;;;6269734;22;20179;-54
2023/12/04 09:53:47;;;;;;;19.13;10.53;;;;;;;;;;6271755;22;20209;-51
2023/12/04 09:56:17;;;;;;;20.37;12.40;;;;;;;;;;6272811;22;20297;-50
2023/12/04 09:58:47;;;;;;;18.37;10.67;;;;;;;;;;6271328;22;20660;-50
2023/12/04 10:01:14;;;;;;;21.53;12.00;;;;;;;;;;6272323;22;20144;-50
2023/12/04 10:03:41;;;;;;;18.43;11.43;;;;;;;;;;6271965;22;20197;-50
2023/12/04 10:06:10;;;;;;;17.67;10.93;;;;;;;;;;6272699;22;20611;-51
2023/12/04 10:08:36;;;;;;;18.37;10.60;;;;;;;;;;6271750;22;20156;-51
2023/12/04 10:11:04;;;;;;;19.70;12.17;;;;;;;;;;6271361;22;20564;-53
2023/12/04 10:13:38;;;;;;;14.87;9.57;;;;;;;;;;6273352;22;20129;-53
2023/12/04 10:16:07;;;;;;;17.30;10.43;;;;;;;;;;6271731;22;20140;-52
2023/12/04 10:18:35;;;;;;;16.77;11.13;;;;;;;;;;6274578;22;20751;-53
2023/12/04 10:21:07;;;;;;;16.13;9.47;;;;;;;;;;6273519;22;20145;-54
2023/12/04 10:23:38;;;;;;;18.60;10.87;;;;;;;;;;6273084;22;20171;-53
2023/12/04 10:26:07;;;;;;;19.50;12.60;;;;;;;;;;6274090;22;20144;-51
2023/12/04 10:28:34;;;;;;;15.53;10.17;;;;;;;;;;6274555;22;20202;-53
2023/12/04 10:31:01;;;;;;;16.17;10.40;;;;;;;;;;6273027;22;20141;-53
2023/12/04 10:33:29;;;;;;;18.80;11.20;;;;;;;;;;6271283;22;20503;-52
2023/12/04 10:35:57;;;;;;;17.73;11.07;;;;;;;;;;6277190;22;20187;-49
2023/12/04 10:38:26;;;;;;;19.10;12.17;;;;;;;;;;6278154;22;20148;-52
2023/12/04 10:40:53;;;;;;;18.77;11.20;;;;;;;;;;6306064;22;20132;-50
2023/12/04 10:43:20;;;;;;;19.60;11.40;;;;;;;;;;6279781;22;20254;-54
2023/12/04 10:45:49;;;;;;;18.87;10.27;;;;;;;;;;6278175;22;20136;-51
2023/12/04 10:48:17;;;;;;;17.00;10.93;;;;;;;;;;6305240;22;20148;-54
2023/12/04 10:50:45;;;;;;;15.40;10.07;;;;;;;;;;6278880;22;20292;-53
2023/12/04 10:53:12;;;;;;;17.97;11.33;;;;;;;;;;6273267;22;20517;-50
2023/12/04 10:55:41;;;;;;;16.23;10.97;;;;;;;;;;6273276;22;20238;-51
2023/12/04 10:58:14;;;;;;;19.10;10.90;;;;;;;;;;6272395;22;20144;-51
2023/12/04 11:00:52;;;;;;;17.57;10.80;;;;;;;;;;6275447;22;20230;-53
2023/12/04 11:03:29;;;;;;;15.67;10.67;;;;;;;;;;6300276;22;20667;-48
2023/12/04 11:05:57;;;;;;;18.93;10.70;;;;;;;;;;6270727;22;20234;-54
2023/12/04 11:08:26;;;;;;;18.13;10.80;;;;;;;;;;6271507;22;20175;-48
2023/12/04 11:11:07;;;;;;;15.37;9.60;;;;;;;;;;6272436;22;20135;-53
2023/12/04 11:13:46;;;;;;;17.83;11.00;;;;;;;;;;6276205;22;20143;-54
2023/12/04 11:16:15;;;;;;;18.23;11.20;;;;;;;;;;6276118;22;20235;-53
2023/12/04 11:18:44;;;;;;;16.57;11.27;;;;;;;;;;6275443;22;20136;-50
2023/12/04 11:21:11;;;;;;;18.80;11.47;;;;;;;;;;6251729;22;20292;-50
2023/12/04 11:23:41;;;;;;;17.93;10.87;;;;;;;;;;6278329;22;20175;-49
2023/12/04 11:26:08;;;;;;;20.63;12.37;;;;;;;;;;6278772;22;20197;-51
2023/12/04 11:28:38;;;;;;;18.93;11.60;;;;;;;;;;6278302;22;20162;-52
2023/12/04 11:31:05;;;;;;;18.30;11.27;;;;;;;;;;6278348;22;20132;-50
2023/12/04 11:33:38;;;;;;;15.87;10.67;;;;;;;;;;6277043;22;20178;-50
2023/12/04 11:36:11;;;;;;;16.33;10.40;;;;;;;;;;6276817;22;20160;-52
2023/12/04 11:38:38;;;;;;;16.50;10.77;;;;;;;;;;6276403;22;20144;-51
2023/12/04 11:41:21;;;;;;;20.40;11.30;;;;;;;;;;6303516;22;20525;-53
2023/12/04 11:43:48;;;;;;;17.70;11.13;;;;;;;;;;6275921;22;20185;-53
2023/12/04 11:46:36;;;;;;;15.97;9.77;;;;;;;;;;6278141;22;20239;-55
2023/12/04 11:49:22;;;;;;;15.83;11.17;;;;;;;;;;6278346;22;20132;-52
2023/12/04 11:51:51;;;;;;;17.93;12.60;;;;;;;;;;6278139;22;20140;-50
2023/12/04 11:54:17;;;;;;;15.63;11.47;;;;;;;;;;6305803;22;20128;-51
2023/12/04 11:56:57;;;;;;;18.73;10.47;;;;;;;;;;6278485;22;20162;-54
2023/12/04 11:59:23;;;;;;;16.30;10.60;;;;;;;;;;6305122;22;20135;-53
2023/12/04 12:01:58;;;;;;;15.73;10.73;;;;;;;;;;6277759;22;20139;-53
2023/12/04 12:04:26;;;;;;;16.60;10.83;;;;;;;;;;6303152;22;20177;-51
2023/12/04 12:06:53;;;;;;;17.13;10.27;;;;;;;;;;6252576;22;20207;-54
2023/12/04 12:09:22;;;;;;;18.47;11.33;;;;;;;;;;6278274;22;20143;-54
2023/12/04 12:11:50;;;;;;;18.27;10.97;;;;;;;;;;6277817;22;20758;-54
2023/12/04 12:14:21;;;;;;;16.77;9.90;;;;;;;;;;6276938;22;20151;-49
2023/12/04 12:16:49;;;;;;;15.37;10.50;;;;;;;;;;6250044;22;20157;-49
2023/12/04 12:19:17;;;;;;;18.00;11.07;;;;;;;;;;6276148;22;20172;-51
2023/12/04 12:21:45;;;;;;;15.50;10.13;;;;;;;;;;6304058;22;20132;-53
2023/12/04 12:24:12;;;;;;;16.63;10.50;;;;;;;;;;6275479;22;20167;-52
2023/12/04 12:26:40;;;;;;;19.30;11.00;;;;;;;;;;6302191;22;20124;-52
2023/12/04 12:29:06;;;;;;;16.33;10.40;;;;;;;;;;6276673;22;20139;-54
2023/12/04 12:31:35;;;;;;;16.93;10.23;;;;;;;;;;6275980;22;20219;-53
2023/12/04 12:34:02;;;;;;;18.80;11.33;;;;;;;;;;6271616;22;20267;-51
2023/12/04 12:36:30;;;;;;;14.53;9.67;;;;;;;;;;6272369;22;20634;-52
2023/12/04 12:38:57;;;;;;;15.77;10.37;;;;;;;;;;6274290;22;20549;-50
2023/12/04 12:41:23;;;;;;;17.00;10.00;;;;;;;;;;6272772;22;20530;-55
2023/12/04 12:43:53;;;;;;;19.17;11.23;;;;;;;;;;6272978;22;20156;-50
2023/12/04 12:46:19;;;;;;;16.20;10.97;;;;;;;;;;6246691;22;20333;-55
2023/12/04 12:48:47;;;;;;;15.30;10.43;;;;;;;;;;6272323;22;20152;-54
2023/12/04 12:51:14;;;;;;;17.07;10.30;;;;;;;;;;6247772;22;20682;-55
2023/12/04 12:53:40;;;;;;;18.87;10.87;;;;;;;;;;6272217;22;20141;-53
2023/12/04 12:56:07;;;;;;;16.03;10.13;;;;;;;;;;6271615;22;20175;-53
2023/12/04 12:58:34;;;;;;;15.80;10.47;;;;;;;;;;6272271;22;20175;-53
2023/12/04 13:01:01;;;;;;;17.10;10.67;;;;;;;;;;6269110;22;20136;-53
2023/12/04 13:03:28;;;;;;;19.13;11.30;;;;;;;;;;6268353;22;20168;-54
2023/12/04 13:05:55;;;;;;;15.93;9.60;;;;;;;;;;6244459;22;20159;-55
2023/12/04 13:08:21;;;;;;;19.40;11.10;;;;;;;;;;6269970;22;20706;-53
2023/12/04 13:10:50;;;;;;;18.67;10.80;;;;;;;;;;6271564;22;20171;-51
2023/12/04 13:13:16;;;;;;;21.63;13.30;;;;;;;;;;6269546;22;20147;-49
2023/12/04 13:15:43;;;;;;;24.30;12.40;;;;;;;;;;6270894;22;20156;-54
2023/12/04 13:18:09;;;;;;;18.50;11.07;;;;;;;;;;6269921;22;20144;-52
2023/12/04 13:20:37;;;;;;;17.23;10.63;;;;;;;;;;6268986;22;20159;-51
2023/12/04 13:23:03;;;;;;;19.10;11.47;;;;;;;;;;6271307;22;20234;-53
2023/12/04 13:25:29;;;;;;;15.77;10.00;;;;;;;;;;6270254;22;20223;-53
2023/12/04 13:27:55;;;;;;;18.90;10.43;;;;;;;;;;6272071;22;20133;-51
2023/12/04 13:30:21;;;;;;;17.57;10.83;;;;;;;;;;6270032;22;20152;-54
2023/12/04 13:32:50;;;;;;;18.43;11.30;;;;;;;;;;6270356;22;20136;-54
2023/12/04 13:35:16;;;;;;;17.67;10.57;;;;;;;;;;6270147;22;20478;-55
2023/12/04 13:37:44;;;;;;;18.10;11.43;;;;;;;;;;6271109;22;20140;-50
2023/12/04 13:40:15;;;;;;;15.07;9.87;;;;;;;;;;6269977;22;20144;-52
2023/12/04 13:45:31;;;;;;;16.47;10.50;;;;;;;;;;6270860;22;20155;-51
2023/12/04 13:47:58;;;;;;;17.70;10.70;;;;;;;;;;6270510;22;20144;-56
2023/12/04 13:50:24;;;;;;;16.23;10.60;;;;;;;;;;6270241;22;20155;-52
2023/12/04 13:52:57;;;;;;;18.17;11.50;;;;;;;;;;6271675;22;20156;-51
2023/12/04 13:58:10;;;;;;;19.90;12.77;;;;;;;;;;6272523;22;20511;-53
2023/12/04 14:00:37;;;;;;;24.60;12.63;;;;;;;;;;6270756;22;20140;-54
2023/12/04 14:03:04;;;;;;;17.87;11.37;;;;;;;;;;6267634;22;20176;-54
2023/12/04 14:05:34;;;;;;;20.87;13.00;;;;;;;;;;6268146;22;20137;-52
2023/12/04 14:08:00;;;;;;;20.40;12.47;;;;;;;;;;6264439;22;20152;-51
2023/12/04 14:10:27;;;;;;;20.13;12.27;;;;;;;;;;6261031;22;20152;-55
2023/12/04 14:12:54;;;;;;;19.50;12.57;;;;;;;;;;6264148;22;20144;-50
2023/12/04 14:15:26;;;;;;;16.93;11.73;;;;;;;;;;6268259;22;20215;-52
2023/12/04 14:17:52;;;;;;;19.83;12.63;;;;;;;;;;6270313;22;20152;-55
2023/12/04 14:20:21;;;;;;;19.60;11.17;;;;;;;;;;6267737;22;20227;-53
2023/12/04 14:22:47;;;;;;;16.13;9.93;;;;;;;;;;6269852;22;20180;-52
2023/12/04 14:25:14;;;;;;;17.33;10.77;;;;;;;;;;6268890;22;20144;-53
2023/12/04 14:27:42;;;;;;;18.23;12.40;;;;;;;;;;6268680;22;20136;-51